sensor_id;sensor_type;location;lat;lon;timestamp;temperature;humidity
12568;DHT22;6349;50.904;6.136;2023-03-01T00:01:24;1.00;99.90
12568;DHT22;6349;50.904;6.136;2023-03-01T00:03:25;1.00;99.90
12568;DHT22;6349;50.904;6.136;2023-03-01T00:05:25;1.00;99.90
12568;DHT22;6349;50.904;6.136;2023-03-01T00:07:26;0.90;99.90
12568;DHT22;6349;50.904;6.136;2023-03-01T00:09:27;0.90;99.90
12568;DHT22;6349;50.904;6.136;2023-03-01T00:11:30;0.90;99.90
12568;DHT22;6349;50.904;6.136;2023-03-01T00:13:31;0.90;99.90
12568;DHT22;6349;50.904;6.136;2023-03-01T00:15:31;0.80;99.90
12568;DHT22;6349;50.904;6.136;2023-03-01T00:17:32;0.80;99.90
12568;DHT22;6349;50.904;6.136;2023-03-01T00:19:33;0.70;99.90
12568;DHT22;6349;50.904;6.136;2023-03-01T00:21:34;0.70;99.90
12568;DHT22;6349;50.904;6.136;2023-03-01T00:23:36;0.70;99.90
12568;DHT22;6349;50.904;6.136;2023-03-01T00:25:41;0.50;99.90
12568;DHT22;6349;50.904;6.136;2023-03-01T00:27:42;0.60;99.90
12568;DHT22;6349;50.904;6.136;2023-03-01T00:29:42;0.60;99.90
12568;DHT22;6349;50.904;6.136;2023-03-01T00:31:43;0.60;99.90
12568;DHT22;6349;50.904;6.136;2023-03-01T00:33:44;0.60;99.90
12568;DHT22;6349;50.904;6.136;2023-03-01T00:35:45;0.60;99.90
12568;DHT22;6349;50.904;6.136;2023-03-01T00:37:45;0.70;99.90
12568;DHT22;6349;50.904;6.136;2023-03-01T00:39:46;0.70;99.90
12568;DHT22;6349;50.904;6.136;2023-03-01T00:41:47;0.70;99.90
12568;DHT22;6349;50.904;6.136;2023-03-01T00:43:48;0.70;99.90
12568;DHT22;6349;50.904;6.136;2023-03-01T00:45:49;0.80;99.90
12568;DHT22;6349;50.904;6.136;2023-03-01T00:47:50;0.90;99.90
12568;DHT22;6349;50.904;6.136;2023-03-01T00:49:51;1.10;99.90
12568;DHT22;6349;50.904;6.136;2023-03-01T00:51:51;1.10;99.90
12568;DHT22;6349;50.904;6.136;2023-03-01T00:53:55;1.00;99.90
12568;DHT22;6349;50.904;6.136;2023-03-01T00:55:57;1.00;99.90
12568;DHT22;6349;50.904;6.136;2023-03-01T00:57:58;1.00;99.90
12568;DHT22;6349;50.904;6.136;2023-03-01T00:59:59;0.90;99.90
12568;DHT22;6349;50.904;6.136;2023-03-01T01:01:59;0.90;99.90
12568;DHT22;6349;50.904;6.136;2023-03-01T01:06:16;0.80;99.90
12568;DHT22;6349;50.904;6.136;2023-03-01T01:08:18;0.80;99.90
12568;DHT22;6349;50.904;6.136;2023-03-01T01:10:18;0.80;99.90
12568;DHT22;6349;50.904;6.136;2023-03-01T01:12:19;0.80;99.90
12568;DHT22;6349;50.904;6.136;2023-03-01T01:14:20;0.80;99.90
12568;DHT22;6349;50.904;6.136;2023-03-01T01:16:22;0.80;99.90
12568;DHT22;6349;50.904;6.136;2023-03-01T01:18:23;0.80;99.90
12568;DHT22;6349;50.904;6.136;2023-03-01T01:20:23;0.80;99.90
12568;DHT22;6349;50.904;6.136;2023-03-01T01:22:24;0.80;99.90
12568;DHT22;6349;50.904;6.136;2023-03-01T01:24:25;0.70;99.90
12568;DHT22;6349;50.904;6.136;2023-03-01T01:26:29;0.70;99.90
12568;DHT22;6349;50.904;6.136;2023-03-01T01:28:29;0.70;99.90
12568;DHT22;6349;50.904;6.136;2023-03-01T01:30:30;0.70;99.90
12568;DHT22;6349;50.904;6.136;2023-03-01T01:32:31;0.60;99.90
12568;DHT22;6349;50.904;6.136;2023-03-01T01:34:31;0.50;99.90
12568;DHT22;6349;50.904;6.136;2023-03-01T01:36:33;0.50;99.90
12568;DHT22;6349;50.904;6.136;2023-03-01T01:38:35;0.50;99.90
12568;DHT22;6349;50.904;6.136;2023-03-01T01:40:46;0.50;99.90
12568;DHT22;6349;50.904;6.136;2023-03-01T01:42:47;0.50;99.90
12568;DHT22;6349;50.904;6.136;2023-03-01T01:44:48;0.50;99.90
12568;DHT22;6349;50.904;6.136;2023-03-01T01:46:59;0.50;99.90
12568;DHT22;6349;50.904;6.136;2023-03-01T01:49:05;0.40;99.90
12568;DHT22;6349;50.904;6.136;2023-03-01T01:51:16;0.30;99.90
12568;DHT22;6349;50.904;6.136;2023-03-01T01:53:19;0.30;99.90
12568;DHT22;6349;50.904;6.136;2023-03-01T01:55:25;0.20;99.90
12568;DHT22;6349;50.904;6.136;2023-03-01T01:57:45;0.20;99.90
12568;DHT22;6349;50.904;6.136;2023-03-01T01:59:51;0.30;99.90
12568;DHT22;6349;50.904;6.136;2023-03-01T02:01:53;0.20;99.90
12568;DHT22;6349;50.904;6.136;2023-03-01T02:03:54;0.20;99.90
12568;DHT22;6349;50.904;6.136;2023-03-01T02:06:21;0.20;99.90
12568;DHT22;6349;50.904;6.136;2023-03-01T02:08:20;0.30;99.90
12568;DHT22;6349;50.904;6.136;2023-03-01T02:10:23;0.20;99.90
12568;DHT22;6349;50.904;6.136;2023-03-01T02:12:25;0.20;99.90
12568;DHT22;6349;50.904;6.136;2023-03-01T02:14:26;0.20;99.90
12568;DHT22;6349;50.904;6.136;2023-03-01T02:16:27;0.20;99.90
12568;DHT22;6349;50.904;6.136;2023-03-01T02:18:27;0.10;99.90
12568;DHT22;6349;50.904;6.136;2023-03-01T02:22:55;0.20;99.90
12568;DHT22;6349;50.904;6.136;2023-03-01T02:27:23;-0.10;99.90
12568;DHT22;6349;50.904;6.136;2023-03-01T02:29:27;0.00;99.90
12568;DHT22;6349;50.904;6.136;2023-03-01T02:31:28;0.00;99.90
12568;DHT22;6349;50.904;6.136;2023-03-01T02:33:45;0.00;99.90
12568;DHT22;6349;50.904;6.136;2023-03-01T02:35:48;0.00;99.90
12568;DHT22;6349;50.904;6.136;2023-03-01T02:37:49;0.00;99.90
12568;DHT22;6349;50.904;6.136;2023-03-01T02:39:58;0.00;99.90
12568;DHT22;6349;50.904;6.136;2023-03-01T02:42:01;0.00;99.90
12568;DHT22;6349;50.904;6.136;2023-03-01T02:44:04;0.00;99.90
12568;DHT22;6349;50.904;6.136;2023-03-01T02:46:08;-0.10;99.90
12568;DHT22;6349;50.904;6.136;2023-03-01T02:48:09;-0.10;99.90
12568;DHT22;6349;50.904;6.136;2023-03-01T02:50:41;-0.10;99.90
12568;DHT22;6349;50.904;6.136;2023-03-01T02:52:45;0.00;99.90
12568;DHT22;6349;50.904;6.136;2023-03-01T02:55:11;0.10;99.90
12568;DHT22;6349;50.904;6.136;2023-03-01T02:57:14;0.20;99.90
12568;DHT22;6349;50.904;6.136;2023-03-01T02:59:17;0.10;99.90
12568;DHT22;6349;50.904;6.136;2023-03-01T03:01:20;0.10;99.90
12568;DHT22;6349;50.904;6.136;2023-03-01T03:03:21;0.20;99.90
12568;DHT22;6349;50.904;6.136;2023-03-01T03:05:27;0.20;99.90
12568;DHT22;6349;50.904;6.136;2023-03-01T03:07:28;0.20;99.90
12568;DHT22;6349;50.904;6.136;2023-03-01T03:09:29;0.20;99.90
12568;DHT22;6349;50.904;6.136;2023-03-01T03:11:30;0.30;99.90
12568;DHT22;6349;50.904;6.136;2023-03-01T03:13:30;0.30;99.90
12568;DHT22;6349;50.904;6.136;2023-03-01T03:15:32;0.20;99.90
12568;DHT22;6349;50.904;6.136;2023-03-01T03:17:37;0.10;99.90
12568;DHT22;6349;50.904;6.136;2023-03-01T03:19:38;0.00;99.90
12568;DHT22;6349;50.904;6.136;2023-03-01T03:21:39;0.10;99.90
12568;DHT22;6349;50.904;6.136;2023-03-01T03:23:40;0.20;99.90
12568;DHT22;6349;50.904;6.136;2023-03-01T03:25:40;0.20;99.90
12568;DHT22;6349;50.904;6.136;2023-03-01T03:27:43;0.20;99.90
12568;DHT22;6349;50.904;6.136;2023-03-01T03:29:44;0.20;99.90
12568;DHT22;6349;50.904;6.136;2023-03-01T03:31:45;0.20;99.90
12568;DHT22;6349;50.904;6.136;2023-03-01T03:33:45;0.10;99.90
12568;DHT22;6349;50.904;6.136;2023-03-01T03:35:48;0.00;99.90
12568;DHT22;6349;50.904;6.136;2023-03-01T03:37:59;-0.10;99.90
12568;DHT22;6349;50.904;6.136;2023-03-01T03:40:03;-0.20;99.90
12568;DHT22;6349;50.904;6.136;2023-03-01T03:42:15;-0.20;99.90
12568;DHT22;6349;50.904;6.136;2023-03-01T03:44:16;-0.30;99.90
12568;DHT22;6349;50.904;6.136;2023-03-01T03:46:16;-0.40;99.90
12568;DHT22;6349;50.904;6.136;2023-03-01T03:48:17;-0.40;99.90
12568;DHT22;6349;50.904;6.136;2023-03-01T03:50:18;-0.50;99.90
12568;DHT22;6349;50.904;6.136;2023-03-01T03:52:19;-0.50;99.90
12568;DHT22;6349;50.904;6.136;2023-03-01T03:54:19;-0.50;99.90
12568;DHT22;6349;50.904;6.136;2023-03-01T03:56:20;-0.60;99.90
12568;DHT22;6349;50.904;6.136;2023-03-01T03:58:22;-0.60;99.90
12568;DHT22;6349;50.904;6.136;2023-03-01T04:00:23;-0.70;99.90
12568;DHT22;6349;50.904;6.136;2023-03-01T04:02:24;-0.70;99.90
12568;DHT22;6349;50.904;6.136;2023-03-01T04:04:25;-0.60;99.90
12568;DHT22;6349;50.904;6.136;2023-03-01T04:06:26;-0.60;99.90
12568;DHT22;6349;50.904;6.136;2023-03-01T04:08:28;-0.40;99.90
12568;DHT22;6349;50.904;6.136;2023-03-01T04:10:33;-0.30;99.90
12568;DHT22;6349;50.904;6.136;2023-03-01T04:12:34;-0.20;99.90
12568;DHT22;6349;50.904;6.136;2023-03-01T04:14:38;-0.10;99.90
12568;DHT22;6349;50.904;6.136;2023-03-01T04:16:39;-0.10;99.90
12568;DHT22;6349;50.904;6.136;2023-03-01T04:18:39;-0.10;99.90
12568;DHT22;6349;50.904;6.136;2023-03-01T04:20:40;-0.10;99.90
12568;DHT22;6349;50.904;6.136;2023-03-01T04:22:41;-0.10;99.90
12568;DHT22;6349;50.904;6.136;2023-03-01T04:24:41;-0.10;99.90
12568;DHT22;6349;50.904;6.136;2023-03-01T04:26:42;-0.10;99.90
12568;DHT22;6349;50.904;6.136;2023-03-01T04:28:43;0.00;99.90
12568;DHT22;6349;50.904;6.136;2023-03-01T04:30:45;0.10;99.90
12568;DHT22;6349;50.904;6.136;2023-03-01T04:32:46;0.10;99.90
12568;DHT22;6349;50.904;6.136;2023-03-01T04:34:46;0.20;99.90
12568;DHT22;6349;50.904;6.136;2023-03-01T04:36:47;0.20;99.90
12568;DHT22;6349;50.904;6.136;2023-03-01T04:38:48;0.20;99.90
12568;DHT22;6349;50.904;6.136;2023-03-01T04:40:49;0.20;99.90
12568;DHT22;6349;50.904;6.136;2023-03-01T04:42:49;0.20;99.90
12568;DHT22;6349;50.904;6.136;2023-03-01T04:44:50;0.20;99.90
12568;DHT22;6349;50.904;6.136;2023-03-01T04:46:51;0.30;99.90
12568;DHT22;6349;50.904;6.136;2023-03-01T04:48:52;0.20;99.90
12568;DHT22;6349;50.904;6.136;2023-03-01T04:50:52;0.20;99.90
12568;DHT22;6349;50.904;6.136;2023-03-01T04:52:53;0.20;99.90
12568;DHT22;6349;50.904;6.136;2023-03-01T04:54:54;0.30;99.90
12568;DHT22;6349;50.904;6.136;2023-03-01T04:56:54;0.30;99.90
12568;DHT22;6349;50.904;6.136;2023-03-01T04:58:55;0.20;99.90
12568;DHT22;6349;50.904;6.136;2023-03-01T05:00:56;0.20;99.90
12568;DHT22;6349;50.904;6.136;2023-03-01T05:02:59;0.20;99.90
12568;DHT22;6349;50.904;6.136;2023-03-01T05:05:00;0.10;99.90
12568;DHT22;6349;50.904;6.136;2023-03-01T05:07:01;0.10;99.90
12568;DHT22;6349;50.904;6.136;2023-03-01T05:09:01;0.00;99.90
12568;DHT22;6349;50.904;6.136;2023-03-01T05:11:02;-0.10;99.90
12568;DHT22;6349;50.904;6.136;2023-03-01T05:13:03;-0.20;99.90
12568;DHT22;6349;50.904;6.136;2023-03-01T05:15:05;-0.30;99.90
12568;DHT22;6349;50.904;6.136;2023-03-01T05:17:07;-0.40;99.90
12568;DHT22;6349;50.904;6.136;2023-03-01T05:19:08;-0.40;99.90
12568;DHT22;6349;50.904;6.136;2023-03-01T05:21:16;-0.40;99.90
12568;DHT22;6349;50.904;6.136;2023-03-01T05:23:17;-0.40;99.90
12568;DHT22;6349;50.904;6.136;2023-03-01T05:25:18;-0.30;99.90
12568;DHT22;6349;50.904;6.136;2023-03-01T05:27:19;-0.30;99.90
12568;DHT22;6349;50.904;6.136;2023-03-01T05:29:24;-0.20;99.90
12568;DHT22;6349;50.904;6.136;2023-03-01T05:31:25;-0.20;99.90
12568;DHT22;6349;50.904;6.136;2023-03-01T05:33:27;-0.20;99.90
12568;DHT22;6349;50.904;6.136;2023-03-01T05:35:28;-0.30;99.90
12568;DHT22;6349;50.904;6.136;2023-03-01T05:37:29;-0.20;99.90
12568;DHT22;6349;50.904;6.136;2023-03-01T05:39:30;-0.40;99.90
12568;DHT22;6349;50.904;6.136;2023-03-01T05:41:31;-0.40;99.90
12568;DHT22;6349;50.904;6.136;2023-03-01T05:43:32;-0.50;99.90
12568;DHT22;6349;50.904;6.136;2023-03-01T05:45:36;-0.50;99.90
12568;DHT22;6349;50.904;6.136;2023-03-01T05:47:39;-0.50;99.90
12568;DHT22;6349;50.904;6.136;2023-03-01T05:49:43;-0.50;99.90
12568;DHT22;6349;50.904;6.136;2023-03-01T05:51:49;-0.50;99.90
12568;DHT22;6349;50.904;6.136;2023-03-01T05:53:51;-0.50;99.90
12568;DHT22;6349;50.904;6.136;2023-03-01T05:55:52;-0.50;99.90
12568;DHT22;6349;50.904;6.136;2023-03-01T05:57:53;-0.50;99.90
12568;DHT22;6349;50.904;6.136;2023-03-01T05:59:55;-0.50;99.90
12568;DHT22;6349;50.904;6.136;2023-03-01T06:01:57;-0.60;99.90
12568;DHT22;6349;50.904;6.136;2023-03-01T06:03:58;-0.70;99.90
12568;DHT22;6349;50.904;6.136;2023-03-01T06:06:00;-0.70;99.90
12568;DHT22;6349;50.904;6.136;2023-03-01T06:08:02;-0.80;99.90
12568;DHT22;6349;50.904;6.136;2023-03-01T06:10:05;-0.80;99.90
12568;DHT22;6349;50.904;6.136;2023-03-01T06:12:07;-0.80;99.90
12568;DHT22;6349;50.904;6.136;2023-03-01T06:14:09;-0.90;99.90
12568;DHT22;6349;50.904;6.136;2023-03-01T06:16:12;-1.00;99.90
12568;DHT22;6349;50.904;6.136;2023-03-01T06:18:14;-1.10;99.90
12568;DHT22;6349;50.904;6.136;2023-03-01T06:20:18;-1.10;99.90
12568;DHT22;6349;50.904;6.136;2023-03-01T06:22:19;-1.00;99.90
12568;DHT22;6349;50.904;6.136;2023-03-01T06:24:21;-0.90;99.90
12568;DHT22;6349;50.904;6.136;2023-03-01T06:26:23;-1.00;99.90
12568;DHT22;6349;50.904;6.136;2023-03-01T06:28:24;-1.00;99.90
12568;DHT22;6349;50.904;6.136;2023-03-01T06:30:26;-1.10;99.90
12568;DHT22;6349;50.904;6.136;2023-03-01T06:32:28;-1.10;99.90
12568;DHT22;6349;50.904;6.136;2023-03-01T06:34:31;-1.10;99.90
12568;DHT22;6349;50.904;6.136;2023-03-01T06:36:33;-1.30;99.90
12568;DHT22;6349;50.904;6.136;2023-03-01T06:38:35;-1.30;99.90
12568;DHT22;6349;50.904;6.136;2023-03-01T06:40:36;-1.30;99.90
12568;DHT22;6349;50.904;6.136;2023-03-01T06:42:40;-1.20;99.90
12568;DHT22;6349;50.904;6.136;2023-03-01T06:44:43;-1.30;99.90
12568;DHT22;6349;50.904;6.136;2023-03-01T06:46:44;-1.30;99.90
12568;DHT22;6349;50.904;6.136;2023-03-01T06:48:46;-1.20;99.90
12568;DHT22;6349;50.904;6.136;2023-03-01T06:50:48;-1.20;99.90
12568;DHT22;6349;50.904;6.136;2023-03-01T06:52:48;-1.10;99.90
12568;DHT22;6349;50.904;6.136;2023-03-01T06:54:55;-1.00;99.90
12568;DHT22;6349;50.904;6.136;2023-03-01T06:56:57;-1.00;99.90
12568;DHT22;6349;50.904;6.136;2023-03-01T06:58:59;-1.10;99.90
12568;DHT22;6349;50.904;6.136;2023-03-01T07:01:05;-1.20;99.90
12568;DHT22;6349;50.904;6.136;2023-03-01T07:03:08;-1.20;99.90
12568;DHT22;6349;50.904;6.136;2023-03-01T07:05:08;-1.20;99.90
12568;DHT22;6349;50.904;6.136;2023-03-01T07:07:10;-1.10;99.90
12568;DHT22;6349;50.904;6.136;2023-03-01T07:09:12;-1.10;99.90
12568;DHT22;6349;50.904;6.136;2023-03-01T07:11:14;-1.00;99.90
12568;DHT22;6349;50.904;6.136;2023-03-01T07:13:16;-0.90;99.90
12568;DHT22;6349;50.904;6.136;2023-03-01T07:15:17;-0.90;99.90
12568;DHT22;6349;50.904;6.136;2023-03-01T07:17:18;-0.90;99.90
12568;DHT22;6349;50.904;6.136;2023-03-01T07:19:21;-0.80;99.90
12568;DHT22;6349;50.904;6.136;2023-03-01T07:21:23;-0.80;99.90
12568;DHT22;6349;50.904;6.136;2023-03-01T07:23:24;-0.70;99.90
12568;DHT22;6349;50.904;6.136;2023-03-01T07:25:26;-0.60;99.90
12568;DHT22;6349;50.904;6.136;2023-03-01T07:27:28;-0.60;99.90
12568;DHT22;6349;50.904;6.136;2023-03-01T07:29:29;-0.60;99.90
12568;DHT22;6349;50.904;6.136;2023-03-01T07:31:30;-0.50;99.90
12568;DHT22;6349;50.904;6.136;2023-03-01T07:33:32;-0.40;99.90
12568;DHT22;6349;50.904;6.136;2023-03-01T07:35:33;-0.30;99.90
12568;DHT22;6349;50.904;6.136;2023-03-01T07:37:35;-0.30;99.90
12568;DHT22;6349;50.904;6.136;2023-03-01T07:39:36;-0.20;99.90
12568;DHT22;6349;50.904;6.136;2023-03-01T07:41:37;-0.10;99.90
12568;DHT22;6349;50.904;6.136;2023-03-01T07:43:39;-0.10;99.90
12568;DHT22;6349;50.904;6.136;2023-03-01T07:45:43;0.00;99.90
12568;DHT22;6349;50.904;6.136;2023-03-01T07:47:45;-0.10;99.90
12568;DHT22;6349;50.904;6.136;2023-03-01T07:49:46;-0.10;99.90
12568;DHT22;6349;50.904;6.136;2023-03-01T07:51:47;0.00;99.90
12568;DHT22;6349;50.904;6.136;2023-03-01T07:53:49;0.00;99.90
12568;DHT22;6349;50.904;6.136;2023-03-01T07:55:49;0.00;99.90
12568;DHT22;6349;50.904;6.136;2023-03-01T07:57:51;0.10;99.90
12568;DHT22;6349;50.904;6.136;2023-03-01T07:59:53;0.00;99.90
12568;DHT22;6349;50.904;6.136;2023-03-01T08:01:56;0.10;99.90
12568;DHT22;6349;50.904;6.136;2023-03-01T08:03:58;0.10;99.90
12568;DHT22;6349;50.904;6.136;2023-03-01T08:06:01;0.20;99.90
12568;DHT22;6349;50.904;6.136;2023-03-01T08:08:04;0.20;99.90
12568;DHT22;6349;50.904;6.136;2023-03-01T08:10:05;0.30;99.90
12568;DHT22;6349;50.904;6.136;2023-03-01T08:12:06;0.30;99.90
12568;DHT22;6349;50.904;6.136;2023-03-01T08:14:09;0.40;99.90
12568;DHT22;6349;50.904;6.136;2023-03-01T08:16:13;0.40;99.90
12568;DHT22;6349;50.904;6.136;2023-03-01T08:18:17;0.50;99.90
12568;DHT22;6349;50.904;6.136;2023-03-01T08:20:19;0.50;99.90
12568;DHT22;6349;50.904;6.136;2023-03-01T08:22:21;0.60;99.90
12568;DHT22;6349;50.904;6.136;2023-03-01T08:24:22;0.70;99.90
12568;DHT22;6349;50.904;6.136;2023-03-01T08:26:24;0.60;99.90
12568;DHT22;6349;50.904;6.136;2023-03-01T08:28:26;0.60;99.90
12568;DHT22;6349;50.904;6.136;2023-03-01T08:30:26;0.70;99.90
12568;DHT22;6349;50.904;6.136;2023-03-01T08:32:28;0.70;99.90
12568;DHT22;6349;50.904;6.136;2023-03-01T08:34:29;0.70;99.90
12568;DHT22;6349;50.904;6.136;2023-03-01T08:36:35;0.70;99.90
12568;DHT22;6349;50.904;6.136;2023-03-01T08:38:37;0.70;99.90
12568;DHT22;6349;50.904;6.136;2023-03-01T08:40:39;0.70;99.90
12568;DHT22;6349;50.904;6.136;2023-03-01T08:42:41;0.70;99.90
12568;DHT22;6349;50.904;6.136;2023-03-01T08:44:44;0.70;99.90
12568;DHT22;6349;50.904;6.136;2023-03-01T08:46:45;0.70;99.90
12568;DHT22;6349;50.904;6.136;2023-03-01T08:48:47;0.70;99.90
12568;DHT22;6349;50.904;6.136;2023-03-01T08:50:48;0.70;99.90
12568;DHT22;6349;50.904;6.136;2023-03-01T08:52:49;0.80;99.90
12568;DHT22;6349;50.904;6.136;2023-03-01T08:54:50;0.80;99.90
12568;DHT22;6349;50.904;6.136;2023-03-01T08:56:52;0.90;99.90
12568;DHT22;6349;50.904;6.136;2023-03-01T08:58:54;0.90;99.90
12568;DHT22;6349;50.904;6.136;2023-03-01T09:00:54;0.90;99.90
12568;DHT22;6349;50.904;6.136;2023-03-01T09:02:56;1.00;99.90
12568;DHT22;6349;50.904;6.136;2023-03-01T09:04:57;1.00;99.90
12568;DHT22;6349;50.904;6.136;2023-03-01T09:06:58;1.00;99.90
12568;DHT22;6349;50.904;6.136;2023-03-01T09:09:00;1.10;99.90
12568;DHT22;6349;50.904;6.136;2023-03-01T09:11:03;1.20;99.90
12568;DHT22;6349;50.904;6.136;2023-03-01T09:13:04;1.20;99.90
12568;DHT22;6349;50.904;6.136;2023-03-01T09:15:06;1.30;99.90
12568;DHT22;6349;50.904;6.136;2023-03-01T09:17:07;1.30;99.90
12568;DHT22;6349;50.904;6.136;2023-03-01T09:19:08;1.20;99.90
12568;DHT22;6349;50.904;6.136;2023-03-01T09:21:12;1.40;99.90
12568;DHT22;6349;50.904;6.136;2023-03-01T09:23:13;1.40;99.90
12568;DHT22;6349;50.904;6.136;2023-03-01T09:25:13;1.50;99.90
12568;DHT22;6349;50.904;6.136;2023-03-01T09:27:15;1.50;99.90
12568;DHT22;6349;50.904;6.136;2023-03-01T09:29:20;1.60;99.90
12568;DHT22;6349;50.904;6.136;2023-03-01T09:31:23;1.60;99.90
12568;DHT22;6349;50.904;6.136;2023-03-01T09:33:26;1.60;99.90
12568;DHT22;6349;50.904;6.136;2023-03-01T09:35:26;1.70;99.90
12568;DHT22;6349;50.904;6.136;2023-03-01T09:37:28;1.70;99.90
12568;DHT22;6349;50.904;6.136;2023-03-01T09:39:30;1.70;99.90
12568;DHT22;6349;50.904;6.136;2023-03-01T09:44:07;1.70;99.90
12568;DHT22;6349;50.904;6.136;2023-03-01T09:46:13;1.70;99.90
12568;DHT22;6349;50.904;6.136;2023-03-01T09:48:20;1.70;99.90
12568;DHT22;6349;50.904;6.136;2023-03-01T09:50:26;1.80;99.90
12568;DHT22;6349;50.904;6.136;2023-03-01T09:52:41;1.80;99.90
12568;DHT22;6349;50.904;6.136;2023-03-01T09:54:43;1.80;99.90
12568;DHT22;6349;50.904;6.136;2023-03-01T09:59:20;1.90;99.90
12568;DHT22;6349;50.904;6.136;2023-03-01T10:01:49;2.00;99.90
12568;DHT22;6349;50.904;6.136;2023-03-01T10:04:35;2.00;99.90
12568;DHT22;6349;50.904;6.136;2023-03-01T10:06:35;2.10;99.90
12568;DHT22;6349;50.904;6.136;2023-03-01T10:09:12;2.20;99.90
12568;DHT22;6349;50.904;6.136;2023-03-01T10:11:01;2.20;99.90
12568;DHT22;6349;50.904;6.136;2023-03-01T10:13:14;2.30;99.90
12568;DHT22;6349;50.904;6.136;2023-03-01T10:15:22;2.30;99.90
12568;DHT22;6349;50.904;6.136;2023-03-01T10:18:19;2.30;99.90
12568;DHT22;6349;50.904;6.136;2023-03-01T10:20:32;2.40;99.90
12568;DHT22;6349;50.904;6.136;2023-03-01T10:22:36;2.40;99.90
12568;DHT22;6349;50.904;6.136;2023-03-01T10:24:38;2.50;99.90
12568;DHT22;6349;50.904;6.136;2023-03-01T10:26:51;2.50;99.90
12568;DHT22;6349;50.904;6.136;2023-03-01T10:29:08;2.50;99.90
12568;DHT22;6349;50.904;6.136;2023-03-01T10:31:22;2.60;99.90
12568;DHT22;6349;50.904;6.136;2023-03-01T10:33:32;2.60;99.90
12568;DHT22;6349;50.904;6.136;2023-03-01T10:35:34;2.60;99.90
12568;DHT22;6349;50.904;6.136;2023-03-01T10:38:17;2.60;99.90
12568;DHT22;6349;50.904;6.136;2023-03-01T10:40:08;2.60;99.90
12568;DHT22;6349;50.904;6.136;2023-03-01T10:42:22;2.70;99.90
12568;DHT22;6349;50.904;6.136;2023-03-01T10:44:47;2.70;99.90
12568;DHT22;6349;50.904;6.136;2023-03-01T10:46:59;2.80;99.90
12568;DHT22;6349;50.904;6.136;2023-03-01T10:49:22;2.80;99.90
12568;DHT22;6349;50.904;6.136;2023-03-01T10:51:24;3.00;99.90
12568;DHT22;6349;50.904;6.136;2023-03-01T10:53:36;3.00;99.90
12568;DHT22;6349;50.904;6.136;2023-03-01T10:55:40;3.00;99.90
12568;DHT22;6349;50.904;6.136;2023-03-01T10:57:42;3.10;99.90
12568;DHT22;6349;50.904;6.136;2023-03-01T10:59:43;3.10;99.90
12568;DHT22;6349;50.904;6.136;2023-03-01T11:01:45;3.10;99.90
12568;DHT22;6349;50.904;6.136;2023-03-01T11:06:22;3.20;99.90
12568;DHT22;6349;50.904;6.136;2023-03-01T11:08:34;3.30;99.90
12568;DHT22;6349;50.904;6.136;2023-03-01T11:10:36;3.30;99.90
12568;DHT22;6349;50.904;6.136;2023-03-01T11:12:37;3.40;99.90
12568;DHT22;6349;50.904;6.136;2023-03-01T11:14:47;3.50;99.90
12568;DHT22;6349;50.904;6.136;2023-03-01T11:16:59;3.50;99.90
12568;DHT22;6349;50.904;6.136;2023-03-01T11:21:24;3.60;99.90
12568;DHT22;6349;50.904;6.136;2023-03-01T11:23:28;3.70;99.90
12568;DHT22;6349;50.904;6.136;2023-03-01T11:25:35;3.80;99.90
12568;DHT22;6349;50.904;6.136;2023-03-01T11:27:42;3.90;99.90
12568;DHT22;6349;50.904;6.136;2023-03-01T11:30:20;3.90;99.90
12568;DHT22;6349;50.904;6.136;2023-03-01T11:32:11;3.90;99.90
12568;DHT22;6349;50.904;6.136;2023-03-01T11:34:21;3.90;99.90
12568;DHT22;6349;50.904;6.136;2023-03-01T11:38:40;3.90;99.90
12568;DHT22;6349;50.904;6.136;2023-03-01T11:40:54;4.00;99.90
12568;DHT22;6349;50.904;6.136;2023-03-01T11:43:15;4.00;99.90
12568;DHT22;6349;50.904;6.136;2023-03-01T11:45:19;4.10;99.90
12568;DHT22;6349;50.904;6.136;2023-03-01T11:47:47;4.10;99.90
12568;DHT22;6349;50.904;6.136;2023-03-01T11:59:45;4.30;99.90
12568;DHT22;6349;50.904;6.136;2023-03-01T12:07:00;4.60;99.90
12568;DHT22;6349;50.904;6.136;2023-03-01T12:12:08;4.70;99.90
12568;DHT22;6349;50.904;6.136;2023-03-01T12:14:40;4.70;99.90
12568;DHT22;6349;50.904;6.136;2023-03-01T12:19:45;4.90;99.90
12568;DHT22;6349;50.904;6.136;2023-03-01T12:22:04;4.90;99.90
12568;DHT22;6349;50.904;6.136;2023-03-01T12:24:48;4.90;99.90
12568;DHT22;6349;50.904;6.136;2023-03-01T12:27:04;5.00;99.90
12568;DHT22;6349;50.904;6.136;2023-03-01T12:29:31;5.00;99.90
12568;DHT22;6349;50.904;6.136;2023-03-01T12:36:45;5.10;99.90
12568;DHT22;6349;50.904;6.136;2023-03-01T12:38:57;5.30;99.90
12568;DHT22;6349;50.904;6.136;2023-03-01T12:46:19;5.60;99.90
12568;DHT22;6349;50.904;6.136;2023-03-01T12:51:07;5.60;99.90
12568;DHT22;6349;50.904;6.136;2023-03-01T12:53:24;5.50;99.90
12568;DHT22;6349;50.904;6.136;2023-03-01T12:55:38;5.50;99.90
12568;DHT22;6349;50.904;6.136;2023-03-01T12:57:47;5.60;99.90
12568;DHT22;6349;50.904;6.136;2023-03-01T13:00:10;5.70;99.90
12568;DHT22;6349;50.904;6.136;2023-03-01T13:02:35;5.80;99.90
12568;DHT22;6349;50.904;6.136;2023-03-01T13:07:42;5.90;99.90
12568;DHT22;6349;50.904;6.136;2023-03-01T13:10:07;5.90;99.90
12568;DHT22;6349;50.904;6.136;2023-03-01T13:14:54;6.00;99.90
12568;DHT22;6349;50.904;6.136;2023-03-01T13:16:55;6.00;99.90
12568;DHT22;6349;50.904;6.136;2023-03-01T13:19:19;6.00;99.90
12568;DHT22;6349;50.904;6.136;2023-03-01T13:21:30;6.00;99.90
12568;DHT22;6349;50.904;6.136;2023-03-01T13:23:35;6.10;99.90
12568;DHT22;6349;50.904;6.136;2023-03-01T13:30:56;6.20;99.90
12568;DHT22;6349;50.904;6.136;2023-03-01T13:35:42;6.10;99.90
12568;DHT22;6349;50.904;6.136;2023-03-01T13:37:44;6.10;99.90
12568;DHT22;6349;50.904;6.136;2023-03-01T13:39:45;6.10;99.90
12568;DHT22;6349;50.904;6.136;2023-03-01T13:41:51;6.20;99.90
12568;DHT22;6349;50.904;6.136;2023-03-01T13:43:52;6.20;99.90
12568;DHT22;6349;50.904;6.136;2023-03-01T13:45:53;6.30;99.90
12568;DHT22;6349;50.904;6.136;2023-03-01T13:47:58;6.50;99.90
12568;DHT22;6349;50.904;6.136;2023-03-01T13:50:03;6.60;99.90
12568;DHT22;6349;50.904;6.136;2023-03-01T13:52:05;6.50;99.90
12568;DHT22;6349;50.904;6.136;2023-03-01T13:54:12;6.60;99.90
12568;DHT22;6349;50.904;6.136;2023-03-01T13:56:20;6.60;99.90
12568;DHT22;6349;50.904;6.136;2023-03-01T13:58:29;6.60;99.90
12568;DHT22;6349;50.904;6.136;2023-03-01T14:00:38;6.60;99.90
12568;DHT22;6349;50.904;6.136;2023-03-01T14:02:40;6.60;99.90
12568;DHT22;6349;50.904;6.136;2023-03-01T14:04:42;6.70;99.90
12568;DHT22;6349;50.904;6.136;2023-03-01T14:06:43;6.60;99.90
12568;DHT22;6349;50.904;6.136;2023-03-01T14:08:48;6.60;99.90
12568;DHT22;6349;50.904;6.136;2023-03-01T14:13:28;6.50;99.90
12568;DHT22;6349;50.904;6.136;2023-03-01T14:15:35;6.50;99.90
12568;DHT22;6349;50.904;6.136;2023-03-01T14:20:41;6.40;99.90
12568;DHT22;6349;50.904;6.136;2023-03-01T14:22:34;6.60;99.90
12568;DHT22;6349;50.904;6.136;2023-03-01T14:24:40;6.60;99.90
12568;DHT22;6349;50.904;6.136;2023-03-01T14:26:46;6.80;99.90
12568;DHT22;6349;50.904;6.136;2023-03-01T14:28:49;6.80;99.90
12568;DHT22;6349;50.904;6.136;2023-03-01T14:30:53;6.90;99.90
12568;DHT22;6349;50.904;6.136;2023-03-01T14:33:01;6.90;99.90
12568;DHT22;6349;50.904;6.136;2023-03-01T14:35:20;6.60;99.90
12568;DHT22;6349;50.904;6.136;2023-03-01T14:37:32;6.50;99.90
12568;DHT22;6349;50.904;6.136;2023-03-01T14:39:33;6.60;99.90
12568;DHT22;6349;50.904;6.136;2023-03-01T14:41:35;6.60;99.90